Time;durP1;ratioP1;P1;durP2;ratioP2;P2;SDS_P1;SDS_P2;PMS_P1;PMS_P2;Temp;Humidity;BMP_temperature;BMP_pressure;BME280_temperature;BME280_humidity;BME280_pressure;Samples;Min_cycle;Max_cycle;Signal;HPM_P1;HPM_P2
2022/09/11 00:01:07;;;;;;;9.08;5.90;;;;;;;15.05;97.84;94059.86;1686754;84;20986;-52
2022/09/11 00:03:35;;;;;;;7.60;4.47;;;;;;;14.99;98.30;94066.73;1684350;84;21632;-52
2022/09/11 00:06:05;;;;;;;4.17;3.75;;;;;;;14.97;98.76;94065.09;1692547;84;21302;-52
2022/09/11 00:08:32;;;;;;;11.55;6.28;;;;;;;14.99;99.00;94072.92;1693982;84;21033;-53
2022/09/11 00:11:09;;;;;;;11.80;5.00;;;;;;;14.96;98.81;94071.88;1693065;84;20953;-51
2022/09/11 00:13:38;;;;;;;9.10;6.78;;;;;;;14.91;98.71;94069.06;1681111;84;21006;-54
2022/09/11 00:16:06;;;;;;;6.15;3.85;;;;;;;14.84;98.37;94069.52;1689265;84;21081;-52
2022/09/11 00:18:34;;;;;;;5.83;3.08;;;;;;;14.76;98.31;94063.66;1688559;84;21541;-54
2022/09/11 00:21:02;;;;;;;15.13;9.75;;;;;;;14.70;98.17;94067.62;1689745;84;20970;-52
2022/09/11 00:23:29;;;;;;;9.90;6.53;;;;;;;14.64;98.22;94072.36;1702546;84;21013;-51
2022/09/11 00:25:57;;;;;;;16.97;13.00;;;;;;;14.67;98.95;94077.66;1689616;84;21084;-55
2022/09/11 00:28:24;;;;;;;9.20;5.47;;;;;;;14.74;99.00;94075.08;1672346;84;21514;-55
2022/09/11 00:31:04;;;;;;;5.92;4.83;;;;;;;14.80;98.20;94075.27;1681455;84;21269;-55
2022/09/11 00:33:32;;;;;;;12.50;6.15;;;;;;;14.77;97.55;94076.25;1681779;85;20967;-53
2022/09/11 00:36:04;;;;;;;5.22;3.47;;;;;;;14.80;97.88;94080.06;1671611;85;21005;-54
2022/09/11 00:38:34;;;;;;;7.70;3.10;;;;;;;14.81;97.36;94074.02;1666948;84;21010;-54
2022/09/11 00:41:02;;;;;;;5.55;2.27;;;;;;;14.81;96.57;94081.58;1654744;84;21030;-54
2022/09/11 00:43:32;;;;;;;3.72;2.25;;;;;;;14.71;96.23;94074.67;1676550;85;21288;-53
2022/09/11 00:46:02;;;;;;;6.47;2.60;;;;;;;14.63;96.26;94081.27;1656193;84;21026;-55
2022/09/11 00:48:34;;;;;;;7.22;2.90;;;;;;;14.59;96.26;94084.14;1693891;84;21446;-53
2022/09/11 00:51:02;;;;;;;2.60;2.30;;;;;;;14.56;96.62;94080.94;1694007;84;20978;-54
2022/09/11 00:53:33;;;;;;;7.00;3.80;;;;;;;14.56;96.49;94077.56;1693898;84;20969;-54
2022/09/11 00:56:02;;;;;;;4.12;3.05;;;;;;;14.55;96.66;94072.50;1694121;84;21254;-54
2022/09/11 00:58:34;;;;;;;2.47;2.27;;;;;;;14.52;96.37;94079.02;1665268;84;20935;-53
2022/09/11 01:01:02;;;;;;;2.60;2.37;;;;;;;14.48;96.08;94082.00;1693555;84;21041;-52
2022/09/11 01:03:30;;;;;;;3.47;2.37;;;;;;;14.43;96.21;94086.11;1672451;84;21034;-52
2022/09/11 01:05:58;;;;;;;4.87;3.17;;;;;;;14.37;96.27;94076.23;1693864;84;21013;-53
2022/09/11 01:08:25;;;;;;;4.90;2.55;;;;;;;14.31;96.58;94080.92;1692397;84;21766;-54
2022/09/11 01:11:21;;;;;;;3.85;2.72;;;;;;;14.26;96.55;94081.63;1692760;84;20962;-53
2022/09/11 01:14:03;;;;;;;4.15;2.92;;;;;;;14.21;96.64;94086.48;1695665;84;20974;-53
2022/09/11 01:16:49;;;;;;;2.80;2.60;;;;;;;14.18;96.82;94084.70;1639351;85;21077;-53
2022/09/11 01:19:53;;;;;;;6.95;4.80;;;;;;;14.13;96.75;94083.34;1652134;84;21028;-53
2022/09/11 01:23:11;;;;;;;2.80;2.60;;;;;;;14.06;96.61;94088.54;1671980;83;21280;-52
2022/09/11 01:26:07;;;;;;;2.33;2.12;;;;;;;14.00;96.87;94091.87;1678075;83;21116;-52
2022/09/11 01:28:51;;;;;;;2.52;2.33;;;;;;;13.94;96.95;94089.64;1683364;84;21062;-53
2022/09/11 01:31:21;;;;;;;5.75;3.22;;;;;;;13.90;96.81;94089.09;1691295;84;21105;-51
2022/09/11 01:33:56;;;;;;;3.02;2.67;;;;;;;13.84;96.94;94097.31;1696053;84;21002;-52
2022/09/11 01:36:34;;;;;;;2.60;2.40;;;;;;;13.79;97.01;94093.11;1672190;84;21234;-53
2022/09/11 01:39:03;;;;;;;5.58;4.47;;;;;;;13.78;97.42;94087.45;1694325;84;20951;-52
2022/09/11 01:41:44;;;;;;;7.37;3.92;;;;;;;13.80;97.53;94084.95;1697126;84;21608;-51
2022/09/11 01:44:17;;;;;;;5.40;3.90;;;;;;;13.82;97.29;94078.31;1693786;84;21006;-52
2022/09/11 01:46:46;;;;;;;4.30;3.22;;;;;;;13.81;97.26;94072.66;1690812;84;21239;-52
2022/09/11 01:49:18;;;;;;;3.25;2.95;;;;;;;13.82;96.79;94072.79;1665442;84;21218;-52
2022/09/11 01:51:46;;;;;;;7.42;3.65;;;;;;;13.79;96.73;94077.27;1691178;84;21525;-52
2022/09/11 01:54:20;;;;;;;4.37;2.98;;;;;;;13.84;97.11;94071.68;1691245;82;21042;-51
2022/09/11 01:56:58;;;;;;;2.85;2.60;;;;;;;13.88;96.76;94081.91;1693194;84;21058;-51
2022/09/11 01:59:30;;;;;;;2.25;2.15;;;;;;;13.85;96.33;94077.34;1692560;84;21073;-54
2022/09/11 02:02:05;;;;;;;2.45;2.25;;;;;;;13.74;96.09;94082.72;1693983;84;21225;-52
2022/09/11 02:04:38;;;;;;;3.08;2.52;;;;;;;13.71;96.49;94080.93;1693886;84;21025;-53
2022/09/11 02:07:10;;;;;;;2.27;2.10;;;;;;;13.71;96.62;94074.02;1692757;84;21470;-53
2022/09/11 02:09:48;;;;;;;7.12;4.47;;;;;;;13.69;96.65;94075.12;1686391;84;21026;-53
2022/09/11 02:12:16;;;;;;;6.08;3.25;;;;;;;13.68;96.83;94072.23;1666097;84;21030;-52
2022/09/11 02:14:45;;;;;;;4.95;2.40;;;;;;;13.67;97.10;94072.09;1683006;82;21557;-53
2022/09/11 02:17:40;;;;;;;2.27;2.08;;;;;;;13.68;97.04;94073.00;1683281;84;21415;-52
2022/09/11 02:20:08;;;;;;;3.52;2.40;;;;;;;13.69;96.85;94062.08;1682833;84;21050;-52
2022/09/11 02:22:36;;;;;;;2.47;2.37;;;;;;;13.72;96.67;94065.86;1671289;84;20990;-53
2022/09/11 02:25:04;;;;;;;3.55;3.25;;;;;;;13.74;96.69;94067.52;1685212;84;21018;-53
2022/09/11 02:27:32;;;;;;;3.25;2.35;;;;;;;13.80;96.89;94068.37;1694950;84;21241;-51
2022/09/11 02:29:59;;;;;;;9.35;5.58;;;;;;;13.80;96.11;94063.58;1688352;82;20963;-53
2022/09/11 02:32:27;;;;;;;6.50;3.05;;;;;;;13.79;95.73;94070.36;1663397;85;20998;-52
2022/09/11 02:34:54;;;;;;;2.60;2.40;;;;;;;13.75;95.17;94067.05;1684216;82;21022;-52
2022/09/11 02:37:45;;;;;;;4.87;2.22;;;;;;;13.64;95.03;94062.00;1689619;84;20967;-52
2022/09/11 02:40:37;;;;;;;6.17;2.25;;;;;;;13.51;95.25;94058.20;1683619;84;21824;-52
2022/09/11 02:43:12;;;;;;;;;;;;;;;13.45;95.60;94057.98;1691512;82;21036;-54
2022/09/11 02:46:25;;;;;;;5.62;2.30;;;;;;;13.41;95.74;94058.81;1688760;84;20443;-52
2022/09/11 02:49:05;;;;;;;10.45;3.15;;;;;;;13.35;95.86;94069.00;1690232;84;20982;-52
2022/09/11 02:52:00;;;;;;;6.67;2.70;;;;;;;13.32;96.72;94069.36;1672189;85;21053;-52
2022/09/11 02:54:58;;;;;;;5.47;2.33;;;;;;;13.35;96.68;94063.47;1644180;85;21970;-52
2022/09/11 02:57:31;;;;;;;2.60;2.40;;;;;;;13.33;96.54;94059.05;1676022;84;21051;-52
2022/09/11 03:00:02;;;;;;;13.25;2.95;;;;;;;13.32;97.17;94053.39;1642611;86;21541;-52
2022/09/11 03:02:30;;;;;;;10.82;4.62;;;;;;;13.34;97.08;94053.67;1609068;87;20992;-54
2022/09/11 03:04:57;;;;;;;3.95;3.30;;;;;;;13.30;96.89;94048.97;1650783;86;21001;-52
2022/09/11 03:07:25;;;;;;;4.90;2.60;;;;;;;13.23;97.09;94048.75;1666269;84;21205;-51
2022/09/11 03:09:52;;;;;;;4.65;2.90;;;;;;;13.21;97.11;94049.08;1661436;86;21098;-52
2022/09/11 03:12:21;;;;;;;5.85;2.62;;;;;;;13.19;97.22;94057.86;1667859;85;20962;-52
2022/09/11 03:14:51;;;;;;;3.30;2.00;;;;;;;13.17;97.10;94054.05;1653653;86;20988;-52
2022/09/11 03:17:18;;;;;;;3.80;2.75;;;;;;;13.14;97.26;94055.02;1663259;86;21732;-54
2022/09/11 03:19:46;;;;;;;2.50;2.30;;;;;;;13.09;97.33;94060.58;1641784;85;21899;-54
2022/09/11 03:22:14;;;;;;;4.85;2.45;;;;;;;13.06;97.40;94058.05;1648714;84;21477;-54
2022/09/11 03:24:41;;;;;;;8.18;2.75;;;;;;;12.99;97.22;94070.84;1660145;84;20954;-54
2022/09/11 03:27:08;;;;;;;3.02;2.65;;;;;;;12.92;97.50;94076.73;1660388;84;21439;-51
2022/09/11 03:29:36;;;;;;;4.30;3.58;;;;;;;12.87;97.92;94072.64;1654731;86;21060;-54
2022/09/11 03:32:05;;;;;;;11.33;7.00;;;;;;;12.85;98.50;94074.34;1647951;86;21283;-53
2022/09/11 03:34:34;;;;;;;10.08;5.58;;;;;;;12.86;98.78;94077.27;1651487;86;21087;-55
2022/09/11 03:37:01;;;;;;;14.83;3.70;;;;;;;12.89;99.20;94070.80;1658653;85;20971;-54
2022/09/11 03:39:27;;;;;;;2.80;2.20;;;;;;;12.91;99.04;94069.06;1692187;84;21104;-54
2022/09/11 03:41:54;;;;;;;5.45;2.33;;;;;;;12.95;98.92;94081.33;1690874;82;21031;-54
2022/09/11 03:44:22;;;;;;;3.45;2.77;;;;;;;12.96;98.76;94083.62;1684640;82;21166;-54
2022/09/11 03:46:48;;;;;;;3.37;2.37;;;;;;;12.95;98.27;94080.72;1681089;84;21015;-53
2022/09/11 03:49:15;;;;;;;5.75;2.60;;;;;;;12.88;97.63;94067.26;1692105;82;21013;-54
2022/09/11 03:51:42;;;;;;;2.60;2.40;;;;;;;12.81;97.30;94075.16;1692528;84;20974;-53
2022/09/11 03:54:09;;;;;;;8.90;2.90;;;;;;;12.76;97.01;94070.33;1693720;84;21056;-55
2022/09/11 03:56:37;;;;;;;4.10;2.67;;;;;;;12.69;96.96;94069.34;1693935;84;21986;-51
2022/09/11 03:59:05;;;;;;;2.62;2.42;;;;;;;12.65;96.81;94068.14;1693158;84;21010;-52
2022/09/11 04:01:34;;;;;;;2.75;2.55;;;;;;;12.55;96.76;94065.95;1691813;82;21088;-53
2022/09/11 04:04:03;;;;;;;10.98;3.58;;;;;;;12.49;97.03;94076.75;1669940;84;20973;-54
2022/09/11 04:06:32;;;;;;;21.33;4.10;;;;;;;12.48;97.54;94076.61;1693383;82;21006;-55
2022/09/11 04:09:00;;;;;;;8.45;2.70;;;;;;;12.53;98.34;94083.61;1693928;84;21998;-51
2022/09/11 04:11:27;;;;;;;4.12;2.72;;;;;;;12.61;98.39;94086.89;1692047;82;20998;-56
2022/09/11 04:13:55;;;;;;;3.35;2.62;;;;;;;12.67;98.22;94087.73;1693244;82;21041;-53
2022/09/11 04:16:23;;;;;;;2.92;2.62;;;;;;;12.72;97.66;94087.06;1691093;82;21037;-52
2022/09/11 04:18:53;;;;;;;3.20;2.65;;;;;;;12.70;97.47;94089.55;1694045;84;21430;-56
2022/09/11 04:21:20;;;;;;;5.92;3.42;;;;;;;12.69;97.32;94087.28;1693858;84;21271;-52
2022/09/11 04:23:55;;;;;;;6.30;4.00;;;;;;;12.71;97.60;94082.04;1692582;82;21255;-51
2022/09/11 04:26:23;;;;;;;;;;;;;;;12.73;97.50;94078.18;1695336;84;21026;-53
2022/09/11 04:28:52;;;;;;;7.78;3.20;;;;;;;12.78;97.27;94077.50;1688959;84;20140;-51
2022/09/11 04:31:19;;;;;;;6.78;3.30;;;;;;;12.75;96.93;94082.60;1661892;85;20999;-52
2022/09/11 04:33:47;;;;;;;3.92;2.90;;;;;;;12.75;96.75;94085.36;1682864;83;22210;-54
2022/09/11 04:36:17;;;;;;;3.15;2.80;;;;;;;12.78;96.72;94083.02;1694343;84;21017;-52
2022/09/11 04:38:45;;;;;;;2.87;2.67;;;;;;;12.82;96.71;94084.36;1701064;84;21041;-51
2022/09/11 04:41:14;;;;;;;3.20;2.65;;;;;;;12.81;96.74;94083.45;1694707;84;21588;-52
2022/09/11 04:43:41;;;;;;;5.03;3.08;;;;;;;12.80;96.70;94090.20;1693914;84;20974;-52
2022/09/11 04:46:16;;;;;;;6.65;3.05;;;;;;;12.76;96.84;94084.13;1693895;84;21248;-54
2022/09/11 04:48:51;;;;;;;12.05;7.03;;;;;;;12.73;97.02;94082.32;1693762;84;21038;-54
2022/09/11 04:51:26;;;;;;;7.47;3.58;;;;;;;12.77;97.90;94080.13;1672435;84;21053;-52
2022/09/11 04:53:56;;;;;;;10.30;3.10;;;;;;;12.84;97.80;94075.58;1700496;84;21049;-54
2022/09/11 04:56:30;;;;;;;3.33;3.02;;;;;;;12.94;97.85;94075.66;1692611;82;21057;-53
2022/09/11 04:59:04;;;;;;;2.85;2.55;;;;;;;13.00;97.24;94075.12;1692185;84;22316;-55
2022/09/11 05:01:36;;;;;;;2.83;2.58;;;;;;;13.01;96.85;94075.27;1693913;84;21514;-51
2022/09/11 05:04:01;;;;;;;3.27;2.90;;;;;;;13.04;96.50;94076.45;1687974;83;21010;-52
2022/09/11 05:06:29;;;;;;;6.60;2.98;;;;;;;13.10;96.40;94069.64;1657991;84;20979;-53
2022/09/11 05:09:03;;;;;;;4.65;3.15;;;;;;;13.13;96.14;94070.06;1657818;84;21454;-52
2022/09/11 05:11:32;;;;;;;5.30;4.17;;;;;;;13.17;96.29;94063.11;1655379;84;22105;-52
2022/09/11 05:14:00;;;;;;;6.90;3.50;;;;;;;13.24;96.34;94057.81;1667464;84;20970;-53
2022/09/11 05:16:28;;;;;;;4.62;3.65;;;;;;;13.35;96.01;94066.23;1680382;83;21460;-54
2022/09/11 05:18:56;;;;;;;8.85;5.05;;;;;;;13.39;95.58;94057.89;1657360;84;21001;-53
2022/09/11 05:24:59;;;;;;;6.62;4.53;;;;;;;13.44;95.39;94057.20;1632995;84;21071;-54
2022/09/11 05:27:26;;;;;;;5.65;4.05;;;;;;;13.40;94.52;94063.56;1628849;85;21207;-53
2022/09/11 05:29:53;;;;;;;9.88;5.08;;;;;;;13.32;94.27;94061.07;1632331;85;21006;-51
2022/09/11 05:32:22;;;;;;;5.67;3.70;;;;;;;13.26;94.28;94068.50;1637803;86;21082;-53
2022/09/11 05:34:49;;;;;;;4.50;3.37;;;;;;;13.23;94.51;94070.10;1613219;86;21350;-53
2022/09/11 05:37:16;;;;;;;4.97;3.50;;;;;;;13.20;94.65;94071.03;1626281;86;21236;-52
2022/09/11 05:39:44;;;;;;;4.92;3.72;;;;;;;13.19;95.03;94068.13;1673537;84;21036;-51
2022/09/11 05:42:12;;;;;;;6.15;5.28;;;;;;;13.22;95.22;94065.78;1670598;85;20983;-52
2022/09/11 05:44:40;;;;;;;6.25;4.47;;;;;;;13.31;95.25;94067.06;1670703;84;20973;-52
2022/09/11 05:47:07;;;;;;;5.20;4.22;;;;;;;13.38;95.29;94056.98;1682139;84;21081;-52
2022/09/11 05:49:35;;;;;;;7.95;4.03;;;;;;;13.46;95.48;94060.88;1625219;86;21839;-52
2022/09/11 05:52:03;;;;;;;5.58;3.80;;;;;;;13.60;95.35;94060.81;1616646;86;22589;-53
2022/09/11 05:54:31;;;;;;;4.47;3.83;;;;;;;13.71;94.67;94063.73;1650761;86;21040;-52
2022/09/11 05:57:01;;;;;;;4.65;3.70;;;;;;;13.80;94.25;94071.13;1628260;86;21602;-52
2022/09/11 05:59:30;;;;;;;8.38;3.92;;;;;;;13.85;93.51;94063.52;1620678;88;21043;-51
2022/09/11 06:01:57;;;;;;;3.02;2.83;;;;;;;13.85;93.11;94048.31;1632548;86;21873;-53
2022/09/11 06:04:29;;;;;;;6.58;3.42;;;;;;;13.90;92.79;94057.30;1624586;86;21550;-52
2022/09/11 06:06:57;;;;;;;4.62;3.20;;;;;;;13.99;92.04;94059.93;1648848;86;21026;-54
2022/09/11 06:09:24;;;;;;;4.55;2.92;;;;;;;14.05;92.07;94056.59;1643585;86;21547;-53
2022/09/11 06:11:52;;;;;;;4.00;3.40;;;;;;;14.11;91.63;94047.73;1623574;86;21444;-52
2022/09/11 06:14:20;;;;;;;4.97;3.17;;;;;;;14.13;91.36;94036.94;1646147;86;21230;-56
2022/09/11 06:16:48;;;;;;;4.83;3.40;;;;;;;14.20;91.53;94035.17;1669142;85;21010;-54
2022/09/11 06:19:15;;;;;;;3.20;2.70;;;;;;;14.30;91.52;94042.05;1663900;83;21514;-53
2022/09/11 06:21:43;;;;;;;3.70;3.00;;;;;;;14.46;91.62;94040.21;1621770;87;20989;-52
2022/09/11 06:24:12;;;;;;;3.30;3.00;;;;;;;14.63;90.42;94043.89;1609060;87;21050;-54
2022/09/11 06:26:39;;;;;;;5.55;3.77;;;;;;;14.80;90.08;94040.65;1628063;87;21261;-53
2022/09/11 06:29:09;;;;;;;4.62;3.30;;;;;;;15.02;89.99;94042.20;1608626;87;21124;-52
2022/09/11 06:31:36;;;;;;;4.42;3.05;;;;;;;15.20;88.87;94037.67;1634493;85;21258;-55
2022/09/11 06:34:03;;;;;;;5.65;4.15;;;;;;;15.26;88.08;94041.27;1653334;85;21129;-54
2022/09/11 06:36:30;;;;;;;6.08;2.90;;;;;;;15.39;87.83;94039.48;1658902;84;21018;-53
2022/09/11 06:38:58;;;;;;;7.00;2.95;;;;;;;15.55;87.06;94046.50;1650079;84;21791;-57
2022/09/11 06:41:27;;;;;;;6.03;2.60;;;;;;;15.66;86.71;94039.64;1620538;85;21541;-54
2022/09/11 06:43:56;;;;;;;3.00;2.70;;;;;;;15.66;85.85;94031.31;1622519;86;21142;-54
2022/09/11 06:46:24;;;;;;;3.80;2.60;;;;;;;15.63;86.02;94035.09;1582753;88;21244;-54
2022/09/11 06:48:53;;;;;;;4.05;2.00;;;;;;;15.64;86.30;94035.83;1622735;86;21089;-53
2022/09/11 06:51:22;;;;;;;2.95;2.40;;;;;;;15.64;85.96;94028.28;1624452;87;21182;-55
2022/09/11 06:53:59;;;;;;;4.55;2.60;;;;;;;15.69;86.42;94024.77;1627003;86;21231;-53
2022/09/11 06:56:30;;;;;;;3.72;2.95;;;;;;;15.75;85.56;94031.09;1610077;88;21571;-54
2022/09/11 06:58:58;;;;;;;4.53;2.58;;;;;;;15.68;85.44;94021.88;1645959;86;21528;-53
2022/09/11 07:01:27;;;;;;;4.20;2.40;;;;;;;15.65;85.36;94026.26;1627085;87;20974;-53
2022/09/11 07:03:58;;;;;;;3.92;2.95;;;;;;;15.63;85.40;94018.45;1638441;86;21301;-53
2022/09/11 07:06:27;;;;;;;10.63;6.45;;;;;;;15.69;85.79;94015.71;1629395;86;21260;-54
2022/09/11 07:09:02;;;;;;;3.50;3.12;;;;;;;15.77;85.68;94013.97;1630554;86;21025;-52
2022/09/11 07:11:34;;;;;;;3.20;2.60;;;;;;;15.85;84.80;94017.77;1630046;86;21561;-54
2022/09/11 07:14:04;;;;;;;4.42;2.92;;;;;;;15.89;84.68;94011.38;1615645;87;21135;-54
2022/09/11 07:16:32;;;;;;;3.58;3.10;;;;;;;15.97;84.90;94011.79;1644962;86;22349;-54
2022/09/11 07:19:02;;;;;;;3.80;2.87;;;;;;;16.10;84.93;94017.62;1630780;86;21025;-55
2022/09/11 07:21:30;;;;;;;4.10;2.55;;;;;;;16.28;85.21;94013.00;1637967;86;21202;-54
2022/09/11 07:23:59;;;;;;;3.33;2.27;;;;;;;16.49;84.52;94015.72;1657272;85;21027;-54
2022/09/11 07:26:28;;;;;;;2.77;2.58;;;;;;;16.74;82.76;94009.94;1652810;85;21091;-55
2022/09/11 07:28:58;;;;;;;4.12;2.45;;;;;;;17.00;81.40;94019.42;1621145;87;21332;-55
2022/09/11 07:31:29;;;;;;;5.87;2.40;;;;;;;17.18;79.59;94020.30;1634934;86;21139;-58
2022/09/11 07:33:56;;;;;;;3.33;2.50;;;;;;;17.24;79.44;94017.64;1638716;86;21094;-55
2022/09/11 07:36:30;;;;;;;2.92;2.20;;;;;;;17.32;79.64;94022.06;1636371;86;21464;-54
2022/09/11 07:38:58;;;;;;;4.80;2.25;;;;;;;17.39;79.02;94019.55;1601841;86;20993;-58
2022/09/11 07:41:28;;;;;;;4.40;2.20;;;;;;;17.51;79.11;94013.33;1653561;85;21831;-54
2022/09/11 07:44:02;;;;;;;8.43;2.70;;;;;;;17.62;77.99;94023.05;1626980;86;21084;-54
2022/09/11 07:46:30;;;;;;;5.10;2.33;;;;;;;17.58;77.29;94022.53;1665255;84;21022;-54
2022/09/11 07:49:00;;;;;;;7.30;2.02;;;;;;;17.52;77.56;94024.58;1656094;85;21503;-55
2022/09/11 07:51:28;;;;;;;4.87;2.10;;;;;;;17.48;77.83;94015.09;1649429;86;21116;-53
2022/09/11 07:53:58;;;;;;;4.17;2.40;;;;;;;17.47;76.93;94012.84;1636861;85;21181;-54
2022/09/11 07:56:27;;;;;;;2.67;2.25;;;;;;;17.51;76.13;94017.50;1652562;85;21138;-54
2022/09/11 07:58:54;;;;;;;3.80;2.22;;;;;;;17.60;75.56;94010.26;1649351;84;21032;-54
2022/09/11 08:01:24;;;;;;;1.75;1.52;;;;;;;17.72;74.62;94002.02;1654008;85;21043;-53
2022/09/11 08:03:59;;;;;;;2.55;2.30;;;;;;;17.88;73.07;93998.42;1616226;85;21548;-54
2022/09/11 08:06:28;;;;;;;3.83;2.30;;;;;;;18.12;72.49;93991.60;1655351;84;21093;-54
2022/09/11 08:09:04;;;;;;;1.40;1.30;;;;;;;18.30;69.54;93992.54;1664703;84;21022;-55
2022/09/11 08:11:37;;;;;;;3.22;2.50;;;;;;;18.49;68.38;93992.70;1653486;85;21011;-56
2022/09/11 08:14:06;;;;;;;3.45;2.90;;;;;;;18.72;67.90;93989.25;1651733;85;20997;-55
2022/09/11 08:16:35;;;;;;;5.22;1.67;;;;;;;18.97;67.83;93982.46;1654250;84;21095;-53
2022/09/11 08:19:03;;;;;;;2.08;1.42;;;;;;;19.20;67.43;93985.20;1623113;86;21595;-54
2022/09/11 08:21:31;;;;;;;1.50;1.40;;;;;;;19.28;64.69;93986.15;1633265;86;21579;-58
2022/09/11 08:23:58;;;;;;;2.67;1.67;;;;;;;19.18;64.38;93983.57;1630641;86;21055;-55
2022/09/11 08:26:29;;;;;;;2.52;2.02;;;;;;;19.13;64.99;93985.75;1632905;86;21004;-54
2022/09/11 08:28:58;;;;;;;8.30;6.35;;;;;;;19.08;64.73;93983.77;1610647;89;21063;-55
2022/09/11 08:31:26;;;;;;;5.72;4.67;;;;;;;19.15;63.79;93979.01;1612531;87;21777;-58
2022/09/11 08:33:55;;;;;;;3.37;1.75;;;;;;;19.36;64.51;93977.31;1612505;87;20981;-54
2022/09/11 08:36:22;;;;;;;2.42;1.50;;;;;;;19.55;63.98;93981.58;1596427;88;21489;-55
2022/09/11 08:38:51;;;;;;;2.27;1.22;;;;;;;19.64;63.31;93987.56;1624140;88;21060;-55
2022/09/11 08:41:52;;;;;;;1.30;1.20;;;;;;;19.59;61.90;93979.98;1618080;88;21096;-55
2022/09/11 08:44:26;;;;;;;2.15;1.87;;;;;;;19.51;61.16;93969.30;1624110;88;21517;-54
2022/09/11 08:47:00;;;;;;;2.30;1.90;;;;;;;19.48;61.03;93972.37;1623386;88;21089;-54
2022/09/11 08:49:35;;;;;;;2.55;1.52;;;;;;;19.52;58.98;93966.63;1624131;88;21095;-53
2022/09/11 08:52:04;;;;;;;1.57;1.47;;;;;;;19.59;58.52;93964.64;1624484;88;20996;-54
2022/09/11 08:54:36;;;;;;;1.45;1.35;;;;;;;19.72;57.66;93977.31;1624254;88;21029;-54
2022/09/11 08:57:29;;;;;;;3.65;1.60;;;;;;;19.86;57.57;93969.79;1624288;88;21868;-53
2022/09/11 09:00:13;;;;;;;1.70;1.60;;;;;;;19.84;56.64;93968.94;1624046;88;21579;-53
2022/09/11 09:03:16;;;;;;;3.15;2.60;;;;;;;19.88;56.13;93973.58;1623542;87;21000;-54
2022/09/11 09:06:13;;;;;;;1.62;1.52;;;;;;;19.98;56.17;93966.36;1624200;88;21050;-53
2022/09/11 09:09:00;;;;;;;1.37;1.27;;;;;;;20.04;55.55;93971.89;1624124;88;21053;-54
2022/09/11 09:11:52;;;;;;;3.05;1.47;;;;;;;19.95;54.79;93972.97;1624081;88;22112;-55
2022/09/11 09:14:39;;;;;;;3.35;1.20;;;;;;;19.85;54.94;93970.45;1596617;88;21103;-54
2022/09/11 09:17:23;;;;;;;2.80;1.15;;;;;;;19.86;54.73;93970.56;1623908;88;21082;-54
2022/09/11 09:20:08;;;;;;;4.55;2.12;;;;;;;19.90;55.11;93973.06;1624235;88;21056;-54
2022/09/11 09:22:44;;;;;;;5.85;1.32;;;;;;;19.91;55.65;93971.13;1624475;88;21520;-57
2022/09/11 09:25:14;;;;;;;2.37;1.10;;;;;;;19.86;56.07;93971.95;1624027;88;21275;-54
2022/09/11 09:27:48;;;;;;;4.60;2.52;;;;;;;19.88;56.02;93968.00;1624364;88;21513;-55
2022/09/11 09:30:28;;;;;;;4.45;2.40;;;;;;;19.89;55.74;93969.50;1624328;88;21012;-57
2022/09/11 09:32:59;;;;;;;7.25;1.82;;;;;;;19.88;55.59;93973.58;1576284;88;21052;-57
2022/09/11 09:35:40;;;;;;;3.47;1.77;;;;;;;19.78;56.07;93975.20;1624202;88;21104;-55
2022/09/11 09:38:18;;;;;;;4.17;1.67;;;;;;;19.63;55.68;93971.33;1624016;88;21202;-54
2022/09/11 09:41:00;;;;;;;10.25;1.95;;;;;;;19.45;56.53;93967.22;1623913;88;21159;-54
2022/09/11 09:43:54;;;;;;;6.65;1.90;;;;;;;19.30;57.05;93980.03;1624142;88;21143;-55
2022/09/11 09:46:41;;;;;;;2.00;1.85;;;;;;;19.14;56.92;93970.53;1623476;87;21040;-55
2022/09/11 09:49:14;;;;;;;5.67;3.47;;;;;;;19.02;58.32;93976.07;1624106;88;21044;-54
2022/09/11 09:51:41;;;;;;;11.08;3.10;;;;;;;19.03;59.52;93974.80;1618245;88;21161;-54
2022/09/11 09:54:14;;;;;;;4.95;3.40;;;;;;;19.00;59.07;93977.23;1624096;88;21041;-55
2022/09/11 09:56:42;;;;;;;5.05;2.77;;;;;;;18.95;59.24;93979.44;1624174;88;21505;-55
2022/09/11 09:59:22;;;;;;;8.48;5.87;;;;;;;18.86;59.69;93985.33;1576292;88;21096;-54
2022/09/11 10:01:50;;;;;;;3.80;3.40;;;;;;;18.77;61.01;93991.86;1624133;88;21048;-56
2022/09/11 10:04:26;;;;;;;8.93;7.17;;;;;;;18.71;61.60;93991.92;1618630;88;21786;-54
2022/09/11 10:07:07;;;;;;;4.22;3.83;;;;;;;18.64;62.35;93990.33;1624169;88;21106;-53
2022/09/11 10:09:33;;;;;;;11.57;8.10;;;;;;;18.60;62.72;93998.18;1624111;88;21157;-54
2022/09/11 10:12:15;;;;;;;5.00;4.17;;;;;;;18.61;62.77;93993.50;1624169;88;21100;-53
2022/09/11 10:14:53;;;;;;;5.10;3.90;;;;;;;18.66;63.02;93999.66;1623936;88;20985;-53
2022/09/11 10:17:32;;;;;;;9.40;8.20;;;;;;;18.71;63.73;93996.72;1624191;88;21894;-53
2022/09/11 10:20:25;;;;;;;5.00;4.50;;;;;;;18.78;62.95;93998.32;1621479;88;21069;-53
2022/09/11 10:22:54;;;;;;;5.33;3.63;;;;;;;18.83;63.01;93989.16;1624367;87;21044;-54
2022/09/11 10:25:29;;;;;;;2.62;2.30;;;;;;;18.87;62.69;93995.84;1623908;88;21512;-53
2022/09/11 10:28:10;;;;;;;11.50;2.92;;;;;;;18.90;62.05;93996.20;1623830;88;21040;-54
2022/09/11 10:30:47;;;;;;;2.10;1.90;;;;;;;18.90;62.60;93986.45;1623991;88;21955;-55
2022/09/11 10:33:32;;;;;;;4.47;2.70;;;;;;;19.08;62.53;93989.34;1624253;88;21008;-56
2022/09/11 10:36:02;;;;;;;2.50;2.30;;;;;;;19.48;62.26;93982.14;1624457;88;21035;-53
2022/09/11 10:38:34;;;;;;;3.20;1.77;;;;;;;19.78;61.60;93979.39;1624204;88;21504;-56
2022/09/11 10:41:18;;;;;;;2.35;1.67;;;;;;;19.93;59.26;93978.33;1624621;88;21015;-55
2022/09/11 10:44:07;;;;;;;1.45;1.35;;;;;;;19.88;58.56;93981.95;1624258;88;21529;-55
2022/09/11 10:46:37;;;;;;;1.30;1.20;;;;;;;19.73;57.31;93985.80;1623926;88;20989;-54
2022/09/11 10:49:21;;;;;;;1.50;1.40;;;;;;;19.59;57.99;93979.98;1618687;88;21054;-55
2022/09/11 10:52:00;;;;;;;;;;;;;;;19.66;57.63;93979.42;1626275;88;21528;-54
2022/09/11 10:54:49;;;;;;;1.62;1.40;;;;;;;19.88;57.26;93973.58;1596649;88;20324;-54
2022/09/11 10:57:39;;;;;;;2.25;1.77;;;;;;;20.37;56.90;93967.38;1635894;86;21246;-56
2022/09/11 11:00:26;;;;;;;2.12;1.20;;;;;;;20.81;53.31;93965.97;1654272;85;21032;-53
2022/09/11 11:03:06;;;;;;;3.52;2.90;;;;;;;21.13;51.88;93963.97;1653535;84;21032;-54
2022/09/11 11:06:02;;;;;;;1.25;1.00;;;;;;;21.64;51.76;93968.92;1610150;86;20998;-54
2022/09/11 11:08:57;;;;;;;2.95;0.68;;;;;;;22.54;49.24;93961.75;1657979;85;21098;-56
2022/09/11 11:11:51;;;;;;;6.83;1.57;;;;;;;23.51;45.27;93958.52;1611474;87;21190;-54
2022/09/11 11:14:53;;;;;;;5.87;0.80;;;;;;;24.28;45.14;93967.66;1656383;84;21008;-56
2022/09/11 11:18:05;;;;;;;1.75;0.50;;;;;;;24.80;42.62;93953.85;1647546;84;21036;-54
2022/09/11 11:20:56;;;;;;;1.00;0.57;;;;;;;25.28;41.51;93969.72;1611896;87;21123;-56
2022/09/11 11:23:46;;;;;;;3.25;0.90;;;;;;;25.81;40.72;93967.67;1615519;87;20969;-54
2022/09/11 11:26:37;;;;;;;1.07;0.62;;;;;;;26.29;39.59;93968.65;1632201;86;21173;-53
2022/09/11 11:29:45;;;;;;;3.70;2.85;;;;;;;26.67;38.80;93960.09;1632165;86;21035;-55
2022/09/11 11:32:55;;;;;;;1.85;0.57;;;;;;;27.11;37.77;93961.97;1632189;86;21319;-55
2022/09/11 11:35:45;;;;;;;6.55;1.27;;;;;;;26.69;37.27;93965.91;1625347;86;22110;-55
2022/09/11 11:38:33;;;;;;;3.37;0.70;;;;;;;25.60;39.26;93974.17;1610177;86;21036;-53
2022/09/11 11:41:25;;;;;;;1.12;0.60;;;;;;;24.59;40.33;93958.09;1632817;86;21290;-55
2022/09/11 11:43:52;;;;;;;3.58;0.80;;;;;;;23.84;42.14;93967.51;1640073;85;21409;-54
2022/09/11 11:46:26;;;;;;;0.75;0.70;;;;;;;23.24;43.37;93957.83;1636397;87;21159;-54
2022/09/11 11:49:00;;;;;;;3.80;0.95;;;;;;;22.79;44.10;93966.52;1626725;87;21045;-54
2022/09/11 11:51:31;;;;;;;2.60;1.65;;;;;;;22.43;45.09;93955.73;1633151;86;20992;-54
2022/09/11 11:54:13;;;;;;;4.90;1.37;;;;;;;22.13;45.69;93965.13;1603399;87;22268;-55
2022/09/11 11:56:53;;;;;;;;;;;;;;;21.99;46.71;93962.16;1634175;87;21591;-53
2022/09/11 11:59:50;;;;;;;1.98;1.40;;;;;;;22.15;46.16;93959.73;1605312;88;20460;-54
2022/09/11 12:02:34;;;;;;;1.15;0.80;;;;;;;22.46;46.03;93963.06;1613524;87;21267;-56
2022/09/11 12:05:09;;;;;;;0.70;0.68;;;;;;;23.11;44.30;93950.23;1594009;86;20989;-54
2022/09/11 12:07:37;;;;;;;2.47;0.80;;;;;;;23.12;43.69;93959.39;1649946;85;21227;-53
2022/09/11 12:10:06;;;;;;;6.05;1.30;;;;;;;23.09;43.99;93950.00;1608937;86;21146;-54